Terminal Aerodrome Forecast
Issued by NWS Bismarck, ND

Home | Current Version | Previous Version | Graphics & Text | Print | Product List | Glossary On
Versions: 1 2 3 4 5 6 7 8 9 10 11 12 13 14 15 16 17 18 19 20 21
000
FTUS43 KBIS 171004 AAB
TAFISN
TAF AMD
KISN 171004Z 1710/1806 VRB03KT P6SM BKN140
     FM171200 29008KT P6SM SCT080 BKN150
     FM180400 07004KT P6SM BKN080=

USA.gov is the U.S. government's official web portal to all federal, state and local government web resources and services.